Airfield :
LOGIN :

Register | Disclaimer

   EN    FR    IT 

 










Legend :    VFR   Marginal VFR   IFR   Intensive IFR   Very Intensive IFR
Visi :
Ceiling :
>= 8 km
>= 3000ft
5 to 8 km
1000 to 3000 ft
1500m to 5 km
500 to 1000 ft
800 to 1500m
200 to 500 ft
< 800m
< 200 ft
Symbols :   Thunderstorms  Fog  Heavy snow  Heavy precipitations  Wind > 20 kt
SIGMETs :     Misc.  Thunderstorms  Icing  Turbulence  Mountain Waves  Volcanic Ashes






- Airport Elevation : 325 ft
- IATA code : POX


LFPT - Pontoise

CURRENT METAR :
  • 170700Z AUTO 11004KT 060V130 6000 SCT006 OVC035 05/04 Q1010

EXPIRED METARs :
  • 170630Z AUTO 30005KT 5000 BR OVC034 05/04 Q1009
  • 170600Z AUTO VRB02KT 6000 OVC033 05/04 Q1009
  • 170530Z AUTO 02002KT 4800 BR OVC031 05/04 Q1009
  • 170500Z AUTO 03001KT 6000 FEW012 OVC031 05/04 Q1009
  • 170430Z AUTO VRB02KT 5000 BR OVC032 04/04 Q1009

TAF N/A
ATIS : +33 1 30 30 52 08



MET'MAP, your aeronautical weather chart ! - Copyright ORBIFLY December 2007 - Disclaimer

ORBIFLY MET'MAP TEAM :

Programming & Development : Alexandra Zaïnal
Concept & Development : Baudouin d'Aumeries
Co-Development & Prog : Marc-Olivier Méhu
Technical & hardware support : Manuel Goepfert

Contact : metmap@orbifly.com




SOURCES & CREDITS :

   NOAA